KHOT/HOT METAR and TAF weather

Enter ICAO airport designator
Station Type Date Time Source
KHOT METAR 2020/09/22 21:05 UTC NOAA

KHOT 222105Z AUTO 11008KT 4SM RA BR BKN012 OVC060 18/17 A3009 RMK AO2 P0004 T01830167


Station Type Date Time Source
KHOT Decoded METAR 2020/09/22 21:05 UTC NOAA

HOT SPRINGS MEMORIAL FIELD, AR, United States (KHOT) 34-29N 093-06W 162M
Sep 22, 2020 - 05:05 PM EDT / 2020.09.22 2105 UTC
Wind: from the ESE (110 degrees) at 9 MPH (8 KT):0
Visibility: 4 mile(s):0
Sky conditions: overcast
Weather: rain; mist
Precipitation last hour: 0.04 inches
Temperature: 64.9 F (18.3 C)
Dew Point: 62.1 F (16.7 C)
Relative Humidity: 90%
Pressure (altimeter): 30.09 in. Hg (1018 hPa)
ob: KHOT 222105Z AUTO 11008KT 4SM RA BR BKN012 OVC060 18/17 A3009 RMK AO2 P0004 T01830167
cycle: 21

Station Type Date Time Source
KHOT TAF 2020/09/22 18:33 UTC NOAA

TAF KHOT 221730Z 2218/2318 08007KT 3SM -SHRA OVC008
FM222100 07007KT 6SM BR OVC020
TEMPO 2221/2223 4SM -SHRA OVC012
FM222300 07007KT 6SM -RA BR OVC015
FM230600 VRB05KT 3SM -SHRA OVC008

Example: see airport list